sensor_id;sensor_type;location;lat;lon;timestamp;pressure;altitude;pressure_sealevel;temperature;humidity
28428;BME280;15662;49.128;8.520;2022-11-20T00:01:56;100031.88;;;12.13;55.54
28428;BME280;15662;49.128;8.520;2022-11-20T00:04:24;100036.44;;;12.10;55.32
28428;BME280;15662;49.128;8.520;2022-11-20T00:06:53;100036.56;;;12.07;55.64
28428;BME280;15662;49.128;8.520;2022-11-20T00:09:27;100035.78;;;12.03;55.19
28428;BME280;15662;49.128;8.520;2022-11-20T00:11:56;100021.81;;;11.98;55.72
28428;BME280;15662;49.128;8.520;2022-11-20T00:14:23;100026.09;;;12.02;55.49
28428;BME280;15662;49.128;8.520;2022-11-20T00:16:51;100020.19;;;11.94;55.42
28428;BME280;15662;49.128;8.520;2022-11-20T00:19:19;100026.91;;;12.04;55.50
28428;BME280;15662;49.128;8.520;2022-11-20T00:21:48;100038.28;;;12.08;55.58
28428;BME280;15662;49.128;8.520;2022-11-20T00:24:19;100031.97;;;12.10;55.42
28428;BME280;15662;49.128;8.520;2022-11-20T00:26:47;100039.94;;;12.10;55.51
28428;BME280;15662;49.128;8.520;2022-11-20T00:29:15;100034.69;;;12.09;55.58
28428;BME280;15662;49.128;8.520;2022-11-20T00:31:43;100033.00;;;12.06;55.80
28428;BME280;15662;49.128;8.520;2022-11-20T00:34:11;100024.41;;;12.00;55.57
28428;BME280;15662;49.128;8.520;2022-11-20T00:36:39;100015.69;;;11.96;55.65
28428;BME280;15662;49.128;8.520;2022-11-20T00:39:07;100024.19;;;12.06;55.64
28428;BME280;15662;49.128;8.520;2022-11-20T00:41:35;100020.78;;;12.02;55.90
28428;BME280;15662;49.128;8.520;2022-11-20T00:44:04;100020.72;;;12.04;55.61
28428;BME280;15662;49.128;8.520;2022-11-20T00:46:32;100018.31;;;11.98;55.62
28428;BME280;15662;49.128;8.520;2022-11-20T00:49:00;100029.56;;;12.04;55.47
28428;BME280;15662;49.128;8.520;2022-11-20T00:51:29;99999.13;;;11.90;55.41
28428;BME280;15662;49.128;8.520;2022-11-20T00:53:57;100016.50;;;11.98;55.59
28428;BME280;15662;49.128;8.520;2022-11-20T00:56:28;100025.34;;;11.99;55.62
28428;BME280;15662;49.128;8.520;2022-11-20T00:59:00;100010.38;;;11.96;55.58
28428;BME280;15662;49.128;8.520;2022-11-20T01:01:29;100018.00;;;12.05;55.69
28428;BME280;15662;49.128;8.520;2022-11-20T01:03:59;100016.97;;;12.09;55.89
28428;BME280;15662;49.128;8.520;2022-11-20T01:06:35;100017.72;;;12.13;55.56
28428;BME280;15662;49.128;8.520;2022-11-20T01:09:09;100005.41;;;12.10;55.75
28428;BME280;15662;49.128;8.520;2022-11-20T01:11:42;100007.13;;;12.11;55.73
28428;BME280;15662;49.128;8.520;2022-11-20T01:14:17;100002.88;;;12.07;55.59
28428;BME280;15662;49.128;8.520;2022-11-20T01:16:49;100015.88;;;12.15;55.68
28428;BME280;15662;49.128;8.520;2022-11-20T01:19:21;100008.91;;;12.12;55.75
28428;BME280;15662;49.128;8.520;2022-11-20T01:21:53;100008.59;;;12.20;55.65
28428;BME280;15662;49.128;8.520;2022-11-20T01:24:22;100003.41;;;12.17;55.74
28428;BME280;15662;49.128;8.520;2022-11-20T01:26:51;100007.72;;;12.20;55.52
28428;BME280;15662;49.128;8.520;2022-11-20T01:29:22;99997.19;;;12.17;55.80
28428;BME280;15662;49.128;8.520;2022-11-20T01:31:52;100013.13;;;12.17;55.58
28428;BME280;15662;49.128;8.520;2022-11-20T01:34:21;100008.81;;;12.14;55.99
28428;BME280;15662;49.128;8.520;2022-11-20T01:36:51;100005.47;;;12.09;55.69
28428;BME280;15662;49.128;8.520;2022-11-20T01:39:25;100011.56;;;12.12;55.77
28428;BME280;15662;49.128;8.520;2022-11-20T01:41:55;100010.84;;;12.07;56.05
28428;BME280;15662;49.128;8.520;2022-11-20T01:47:40;100010.72;;;12.10;55.83
28428;BME280;15662;49.128;8.520;2022-11-20T01:50:17;100005.06;;;11.96;56.50
28428;BME280;15662;49.128;8.520;2022-11-20T01:53:10;100003.63;;;12.11;56.13
28428;BME280;15662;49.128;8.520;2022-11-20T01:55:47;99993.06;;;12.09;56.27
28428;BME280;15662;49.128;8.520;2022-11-20T01:58:22;99989.38;;;12.13;56.02
28428;BME280;15662;49.128;8.520;2022-11-20T02:00:52;99996.16;;;12.21;56.40
28428;BME280;15662;49.128;8.520;2022-11-20T02:03:20;99996.06;;;12.24;56.34
28428;BME280;15662;49.128;8.520;2022-11-20T02:08:25;100000.16;;;12.32;56.24
28428;BME280;15662;49.128;8.520;2022-11-20T02:10:54;99995.81;;;12.30;56.18
28428;BME280;15662;49.128;8.520;2022-11-20T02:13:23;99999.22;;;12.33;56.20
28428;BME280;15662;49.128;8.520;2022-11-20T02:16:26;99991.00;;;12.39;56.07
28428;BME280;15662;49.128;8.520;2022-11-20T02:18:58;99996.22;;;12.43;56.14
28428;BME280;15662;49.128;8.520;2022-11-20T02:24:22;99988.09;;;12.46;56.20
28428;BME280;15662;49.128;8.520;2022-11-20T02:26:55;99995.28;;;12.44;56.24
28428;BME280;15662;49.128;8.520;2022-11-20T02:30:02;99982.97;;;12.41;56.09
28428;BME280;15662;49.128;8.520;2022-11-20T02:32:36;99995.47;;;12.39;56.42
28428;BME280;15662;49.128;8.520;2022-11-20T02:38:01;99982.97;;;12.41;56.46
28428;BME280;15662;49.128;8.520;2022-11-20T02:40:30;99978.56;;;12.40;56.63
28428;BME280;15662;49.128;8.520;2022-11-20T02:42:58;99979.41;;;12.42;56.53
28428;BME280;15662;49.128;8.520;2022-11-20T02:45:26;99974.03;;;12.44;56.41
28428;BME280;15662;49.128;8.520;2022-11-20T02:47:54;99972.97;;;12.48;56.73
28428;BME280;15662;49.128;8.520;2022-11-20T02:50:22;99958.84;;;12.46;56.44
28428;BME280;15662;49.128;8.520;2022-11-20T02:52:50;99968.09;;;12.59;56.40
28428;BME280;15662;49.128;8.520;2022-11-20T02:55:18;99970.66;;;12.60;56.48
28428;BME280;15662;49.128;8.520;2022-11-20T02:57:46;99961.84;;;12.60;56.81
28428;BME280;15662;49.128;8.520;2022-11-20T03:00:14;99970.50;;;12.65;56.43
28428;BME280;15662;49.128;8.520;2022-11-20T03:02:42;99962.69;;;12.60;56.53
28428;BME280;15662;49.128;8.520;2022-11-20T03:05:11;99966.09;;;12.64;56.37
28428;BME280;15662;49.128;8.520;2022-11-20T03:07:40;99966.09;;;12.64;56.67
28428;BME280;15662;49.128;8.520;2022-11-20T03:10:09;99960.78;;;12.64;56.71
28428;BME280;15662;49.128;8.520;2022-11-20T03:12:36;99967.03;;;12.63;57.00
28428;BME280;15662;49.128;8.520;2022-11-20T03:15:05;99958.31;;;12.59;57.02
28428;BME280;15662;49.128;8.520;2022-11-20T03:17:33;99962.66;;;12.62;57.17
28428;BME280;15662;49.128;8.520;2022-11-20T03:20:01;99963.50;;;12.62;57.30
28428;BME280;15662;49.128;8.520;2022-11-20T03:22:30;99963.50;;;12.62;57.28
28428;BME280;15662;49.128;8.520;2022-11-20T03:24:58;99956.47;;;12.61;57.58
28428;BME280;15662;49.128;8.520;2022-11-20T03:27:32;99950.06;;;12.65;57.66
28428;BME280;15662;49.128;8.520;2022-11-20T03:30:01;99950.97;;;12.66;57.68
28428;BME280;15662;49.128;8.520;2022-11-20T03:32:29;99958.88;;;12.68;57.60
28428;BME280;15662;49.128;8.520;2022-11-20T03:34:57;99946.50;;;12.67;57.92
28428;BME280;15662;49.128;8.520;2022-11-20T03:37:26;99959.56;;;12.73;57.77
28428;BME280;15662;49.128;8.520;2022-11-20T03:39:54;99952.38;;;12.75;57.96
28428;BME280;15662;49.128;8.520;2022-11-20T03:42:25;99929.69;;;12.66;57.62
28428;BME280;15662;49.128;8.520;2022-11-20T03:45:15;99952.25;;;12.78;57.83
28428;BME280;15662;49.128;8.520;2022-11-20T03:47:44;99952.25;;;12.78;57.79
28428;BME280;15662;49.128;8.520;2022-11-20T03:50:13;99953.91;;;12.80;57.83
28428;BME280;15662;49.128;8.520;2022-11-20T03:52:41;99952.31;;;12.76;57.84
28428;BME280;15662;49.128;8.520;2022-11-20T03:55:10;99954.78;;;12.81;57.70
28428;BME280;15662;49.128;8.520;2022-11-20T03:57:41;99953.00;;;12.81;57.84
28428;BME280;15662;49.128;8.520;2022-11-20T04:00:09;99934.81;;;12.71;57.78
28428;BME280;15662;49.128;8.520;2022-11-20T04:02:37;99952.19;;;12.79;57.96
28428;BME280;15662;49.128;8.520;2022-11-20T04:05:06;99950.53;;;12.77;57.83
28428;BME280;15662;49.128;8.520;2022-11-20T04:07:34;99953.91;;;12.80;57.90
28428;BME280;15662;49.128;8.520;2022-11-20T04:10:03;99939.88;;;12.77;58.01
28428;BME280;15662;49.128;8.520;2022-11-20T04:12:32;99944.16;;;12.81;57.91
28428;BME280;15662;49.128;8.520;2022-11-20T04:15:01;99950.25;;;12.83;58.00
28428;BME280;15662;49.128;8.520;2022-11-20T04:17:29;99945.06;;;12.80;57.95
28428;BME280;15662;49.128;8.520;2022-11-20T04:19:58;99949.31;;;12.84;58.01
28428;BME280;15662;49.128;8.520;2022-11-20T04:22:26;99940.47;;;12.83;57.76
28428;BME280;15662;49.128;8.520;2022-11-20T04:24:54;99932.63;;;12.80;57.87
28428;BME280;15662;49.128;8.520;2022-11-20T04:27:23;99941.34;;;12.84;57.83
28428;BME280;15662;49.128;8.520;2022-11-20T04:29:52;99942.16;;;12.86;57.91
28428;BME280;15662;49.128;8.520;2022-11-20T04:32:20;99945.69;;;12.86;58.16
28428;BME280;15662;49.128;8.520;2022-11-20T04:35:08;99949.22;;;12.87;58.06
28428;BME280;15662;49.128;8.520;2022-11-20T04:37:36;99942.16;;;12.86;58.10
28428;BME280;15662;49.128;8.520;2022-11-20T04:40:06;99930.78;;;12.82;57.90
28428;BME280;15662;49.128;8.520;2022-11-20T04:42:34;99938.44;;;12.90;57.90
28428;BME280;15662;49.128;8.520;2022-11-20T04:45:02;99945.63;;;12.88;58.08
28428;BME280;15662;49.128;8.520;2022-11-20T04:47:30;99955.25;;;12.90;58.00
28428;BME280;15662;49.128;8.520;2022-11-20T04:49:58;99941.03;;;12.91;58.09
28428;BME280;15662;49.128;8.520;2022-11-20T04:52:26;99954.06;;;12.98;57.93
28428;BME280;15662;49.128;8.520;2022-11-20T04:54:54;99935.66;;;12.93;58.01
28428;BME280;15662;49.128;8.520;2022-11-20T04:57:23;99938.97;;;12.98;58.03
28428;BME280;15662;49.128;8.520;2022-11-20T04:59:52;99939.72;;;13.02;57.97
28428;BME280;15662;49.128;8.520;2022-11-20T05:02:21;99944.09;;;13.03;58.21
28428;BME280;15662;49.128;8.520;2022-11-20T05:04:49;99939.72;;;13.02;58.08
28428;BME280;15662;49.128;8.520;2022-11-20T05:07:18;99936.19;;;13.01;58.18
28428;BME280;15662;49.128;8.520;2022-11-20T05:09:46;99937.84;;;13.04;58.15
28428;BME280;15662;49.128;8.520;2022-11-20T05:12:14;99947.56;;;13.05;58.29
28428;BME280;15662;49.128;8.520;2022-11-20T05:14:42;99936.91;;;13.05;58.28
28428;BME280;15662;49.128;8.520;2022-11-20T05:17:12;99933.34;;;13.06;58.16
28428;BME280;15662;49.128;8.520;2022-11-20T05:19:39;99934.19;;;13.06;58.15
28428;BME280;15662;49.128;8.520;2022-11-20T05:22:08;99934.41;;;13.02;58.19
28428;BME280;15662;49.128;8.520;2022-11-20T05:24:36;99934.25;;;13.05;58.06
28428;BME280;15662;49.128;8.520;2022-11-20T05:27:04;99940.38;;;13.07;57.99
28428;BME280;15662;49.128;8.520;2022-11-20T05:29:32;99934.31;;;13.03;58.01
28428;BME280;15662;49.128;8.520;2022-11-20T05:32:00;99934.25;;;13.05;58.13
28428;BME280;15662;49.128;8.520;2022-11-20T05:34:28;99936.91;;;13.05;58.01
28428;BME280;15662;49.128;8.520;2022-11-20T05:36:57;99935.06;;;13.07;58.15
28428;BME280;15662;49.128;8.520;2022-11-20T05:39:26;99938.66;;;13.06;57.71
28428;BME280;15662;49.128;8.520;2022-11-20T05:41:54;99928.13;;;13.03;57.87
28428;BME280;15662;49.128;8.520;2022-11-20T05:44:40;99927.09;;;13.07;57.96
28428;BME280;15662;49.128;8.520;2022-11-20T05:47:08;99917.56;;;13.01;57.94
28428;BME280;15662;49.128;8.520;2022-11-20T05:49:36;99916.53;;;13.05;57.74
28428;BME280;15662;49.128;8.520;2022-11-20T05:52:04;99927.00;;;13.08;57.90
28428;BME280;15662;49.128;8.520;2022-11-20T05:54:32;99921.69;;;13.08;57.82
28428;BME280;15662;49.128;8.520;2022-11-20T05:57:00;99934.00;;;13.11;57.87
28428;BME280;15662;49.128;8.520;2022-11-20T05:59:28;99944.56;;;13.12;57.66
28428;BME280;15662;49.128;8.520;2022-11-20T06:01:56;99940.22;;;13.10;57.66
28428;BME280;15662;49.128;8.520;2022-11-20T06:04:25;99944.78;;;13.08;57.75
28428;BME280;15662;49.128;8.520;2022-11-20T06:06:52;99942.97;;;13.08;58.04
28428;BME280;15662;49.128;8.520;2022-11-20T06:09:20;99949.16;;;13.09;58.09
28428;BME280;15662;49.128;8.520;2022-11-20T06:11:49;99944.84;;;13.06;57.92
28428;BME280;15662;49.128;8.520;2022-11-20T06:14:18;99942.97;;;13.08;58.21
28428;BME280;15662;49.128;8.520;2022-11-20T06:16:46;99944.69;;;13.09;58.09
28428;BME280;15662;49.128;8.520;2022-11-20T06:19:16;99936.91;;;13.05;57.99
28428;BME280;15662;49.128;8.520;2022-11-20T06:21:44;99930.81;;;13.03;58.22
28428;BME280;15662;49.128;8.520;2022-11-20T06:24:13;99943.97;;;13.06;58.47
28428;BME280;15662;49.128;8.520;2022-11-20T06:26:42;99943.13;;;13.05;58.49
28428;BME280;15662;49.128;8.520;2022-11-20T06:29:10;99932.53;;;13.04;58.57
28428;BME280;15662;49.128;8.520;2022-11-20T06:31:38;99948.44;;;13.05;58.25
28428;BME280;15662;49.128;8.520;2022-11-20T06:34:09;99944.19;;;13.01;58.25
28428;BME280;15662;49.128;8.520;2022-11-20T06:36:38;99953.13;;;12.99;58.43
28428;BME280;15662;49.128;8.520;2022-11-20T06:39:06;99945.16;;;12.99;58.50
28428;BME280;15662;49.128;8.520;2022-11-20T06:41:36;99948.00;;;12.94;58.36
28428;BME280;15662;49.128;8.520;2022-11-20T06:44:05;99950.56;;;12.97;58.18
28428;BME280;15662;49.128;8.520;2022-11-20T06:46:33;99948.88;;;12.95;58.33
28428;BME280;15662;49.128;8.520;2022-11-20T06:49:01;99944.50;;;12.94;58.26
28428;BME280;15662;49.128;8.520;2022-11-20T06:51:29;99945.22;;;12.97;58.44
28428;BME280;15662;49.128;8.520;2022-11-20T06:53:57;99954.06;;;12.98;58.49
28428;BME280;15662;49.128;8.520;2022-11-20T06:56:25;99958.47;;;12.99;58.46
28428;BME280;15662;49.128;8.520;2022-11-20T06:58:53;99960.19;;;13.00;58.51
28428;BME280;15662;49.128;8.520;2022-11-20T07:01:21;99953.28;;;12.96;58.50
28428;BME280;15662;49.128;8.520;2022-11-20T07:03:51;99959.28;;;13.01;58.42
28428;BME280;15662;49.128;8.520;2022-11-20T07:06:21;99970.72;;;13.03;58.53
28428;BME280;15662;49.128;8.520;2022-11-20T07:08:52;99968.13;;;13.01;58.31
28428;BME280;15662;49.128;8.520;2022-11-20T07:11:20;99964.63;;;12.99;58.65
28428;BME280;15662;49.128;8.520;2022-11-20T07:13:48;99956.00;;;12.94;58.66
28428;BME280;15662;49.128;8.520;2022-11-20T07:16:17;99961.03;;;13.00;58.59
28428;BME280;15662;49.128;8.520;2022-11-20T07:18:45;99967.19;;;13.02;58.74
28428;BME280;15662;49.128;8.520;2022-11-20T07:21:17;99968.03;;;13.03;58.29
28428;BME280;15662;49.128;8.520;2022-11-20T07:23:46;99969.72;;;13.05;58.57
28428;BME280;15662;49.128;8.520;2022-11-20T07:26:14;99978.50;;;13.07;58.66
28428;BME280;15662;49.128;8.520;2022-11-20T07:28:44;99980.22;;;13.08;58.60
28428;BME280;15662;49.128;8.520;2022-11-20T07:31:13;99978.44;;;13.09;58.62
28428;BME280;15662;49.128;8.520;2022-11-20T07:33:46;99965.38;;;13.03;58.60
28428;BME280;15662;49.128;8.520;2022-11-20T07:36:14;99975.72;;;13.10;58.68
28428;BME280;15662;49.128;8.520;2022-11-20T07:38:52;99975.72;;;13.10;58.65
28428;BME280;15662;49.128;8.520;2022-11-20T07:41:22;99983.63;;;13.12;58.54
28428;BME280;15662;49.128;8.520;2022-11-20T07:43:49;99996.06;;;13.11;58.74
28428;BME280;15662;49.128;8.520;2022-11-20T07:46:17;99992.53;;;13.11;58.55
28428;BME280;15662;49.128;8.520;2022-11-20T07:48:46;99990.00;;;13.08;58.61
28428;BME280;15662;49.128;8.520;2022-11-20T07:51:14;99989.03;;;13.10;58.95
28428;BME280;15662;49.128;8.520;2022-11-20T07:53:41;99985.53;;;13.08;58.73
28428;BME280;15662;49.128;8.520;2022-11-20T07:56:09;99991.72;;;13.09;58.74
28428;BME280;15662;49.128;8.520;2022-11-20T07:58:37;99994.53;;;13.06;58.76
28428;BME280;15662;49.128;8.520;2022-11-20T08:01:06;99994.47;;;13.07;58.95
28428;BME280;15662;49.128;8.520;2022-11-20T08:03:36;99996.25;;;13.07;58.64
28428;BME280;15662;49.128;8.520;2022-11-20T08:06:07;100004.16;;;13.08;58.79
28428;BME280;15662;49.128;8.520;2022-11-20T08:08:35;100006.91;;;13.07;58.90
28428;BME280;15662;49.128;8.520;2022-11-20T08:11:09;100011.41;;;13.05;58.81
28428;BME280;15662;49.128;8.520;2022-11-20T08:13:56;100004.56;;;12.99;59.03
28428;BME280;15662;49.128;8.520;2022-11-20T08:16:45;100012.22;;;13.07;58.67
28428;BME280;15662;49.128;8.520;2022-11-20T08:19:19;100007.56;;;13.12;58.70
28428;BME280;15662;49.128;8.520;2022-11-20T08:21:47;100015.63;;;13.10;59.04
28428;BME280;15662;49.128;8.520;2022-11-20T08:24:15;100009.38;;;13.11;58.78
28428;BME280;15662;49.128;8.520;2022-11-20T08:26:44;100020.69;;;13.16;58.92
28428;BME280;15662;49.128;8.520;2022-11-20T08:29:13;100014.53;;;13.14;59.01
28428;BME280;15662;49.128;8.520;2022-11-20T08:31:41;99999.84;;;13.06;58.92
28428;BME280;15662;49.128;8.520;2022-11-20T08:34:09;100016.31;;;13.15;58.92
28428;BME280;15662;49.128;8.520;2022-11-20T08:36:44;100018.16;;;13.13;59.10
28428;BME280;15662;49.128;8.520;2022-11-20T08:39:13;100018.06;;;13.15;59.00
28428;BME280;15662;49.128;8.520;2022-11-20T08:41:41;100014.63;;;13.13;59.27
28428;BME280;15662;49.128;8.520;2022-11-20T08:44:09;100007.56;;;13.12;59.05
28428;BME280;15662;49.128;8.520;2022-11-20T08:46:40;100006.72;;;13.11;59.03
28428;BME280;15662;49.128;8.520;2022-11-20T08:49:11;100007.50;;;13.13;59.17
28428;BME280;15662;49.128;8.520;2022-11-20T08:51:40;99994.19;;;13.13;59.35
28428;BME280;15662;49.128;8.520;2022-11-20T08:54:09;100007.38;;;13.16;59.14
28428;BME280;15662;49.128;8.520;2022-11-20T08:56:37;100012.63;;;13.18;59.24
28428;BME280;15662;49.128;8.520;2022-11-20T08:59:05;100019.63;;;13.21;59.28
28428;BME280;15662;49.128;8.520;2022-11-20T09:01:53;100021.47;;;13.18;59.31
28428;BME280;15662;49.128;8.520;2022-11-20T09:04:21;100013.44;;;13.20;59.48
28428;BME280;15662;49.128;8.520;2022-11-20T09:06:49;100015.03;;;13.26;59.26
28428;BME280;15662;49.128;8.520;2022-11-20T09:09:19;100018.47;;;13.28;59.44
28428;BME280;15662;49.128;8.520;2022-11-20T09:11:48;100011.34;;;13.28;59.54
28428;BME280;15662;49.128;8.520;2022-11-20T09:14:17;100021.06;;;13.29;59.20
28428;BME280;15662;49.128;8.520;2022-11-20T09:16:46;100033.31;;;13.33;59.26
28428;BME280;15662;49.128;8.520;2022-11-20T09:19:14;100020.19;;;13.29;59.43
28428;BME280;15662;49.128;8.520;2022-11-20T09:22:02;100029.84;;;13.31;59.55
28428;BME280;15662;49.128;8.520;2022-11-20T09:24:30;100029.72;;;13.34;59.32
28428;BME280;15662;49.128;8.520;2022-11-20T09:27:03;100031.31;;;13.38;59.58
28428;BME280;15662;49.128;8.520;2022-11-20T09:29:30;100032.91;;;13.42;59.57
28428;BME280;15662;49.128;8.520;2022-11-20T09:31:59;100037.09;;;13.48;59.68
28428;BME280;15662;49.128;8.520;2022-11-20T09:34:27;100029.13;;;13.48;59.72
28428;BME280;15662;49.128;8.520;2022-11-20T09:36:56;100008.88;;;13.44;59.80
28428;BME280;15662;49.128;8.520;2022-11-20T09:39:31;100029.41;;;13.62;59.74
28428;BME280;15662;49.128;8.520;2022-11-20T09:45:20;100022.94;;;13.68;59.95
28428;BME280;15662;49.128;8.520;2022-11-20T09:48:48;100037.94;;;13.71;59.83
28428;BME280;15662;49.128;8.520;2022-11-20T09:54:41;100044.56;;;13.81;60.13
28428;BME280;15662;49.128;8.520;2022-11-20T09:57:16;100039.06;;;13.65;59.93
28428;BME280;15662;49.128;8.520;2022-11-20T09:59:59;100040.50;;;13.72;59.93
28428;BME280;15662;49.128;8.520;2022-11-20T10:05:49;100047.63;;;13.72;59.57
28428;BME280;15662;49.128;8.520;2022-11-20T10:08:24;100048.50;;;13.72;59.71
28428;BME280;15662;49.128;8.520;2022-11-20T10:11:14;100043.19;;;13.72;59.53
28428;BME280;15662;49.128;8.520;2022-11-20T10:20:09;100048.84;;;13.64;59.63
28428;BME280;15662;49.128;8.520;2022-11-20T10:28:49;100051.53;;;13.64;59.66
28428;BME280;15662;49.128;8.520;2022-11-20T10:32:19;100046.13;;;13.66;59.60
28428;BME280;15662;49.128;8.520;2022-11-20T10:35:18;100053.91;;;13.71;59.69
28428;BME280;15662;49.128;8.520;2022-11-20T10:37:56;100050.09;;;13.76;59.69
28428;BME280;15662;49.128;8.520;2022-11-20T10:40:41;100040.03;;;13.83;59.78
28428;BME280;15662;49.128;8.520;2022-11-20T10:43:23;100033.72;;;13.85;59.97
28428;BME280;15662;49.128;8.520;2022-11-20T10:46:02;100038.84;;;13.90;59.86
28428;BME280;15662;49.128;8.520;2022-11-20T10:48:32;100033.34;;;13.93;60.04
28428;BME280;15662;49.128;8.520;2022-11-20T10:54:51;100028.47;;;14.03;59.96
28428;BME280;15662;49.128;8.520;2022-11-20T11:00:21;100023.56;;;14.14;60.19
28428;BME280;15662;49.128;8.520;2022-11-20T11:02:54;100028.44;;;14.23;60.10
28428;BME280;15662;49.128;8.520;2022-11-20T11:05:50;100025.50;;;14.29;59.83
28428;BME280;15662;49.128;8.520;2022-11-20T11:08:22;100005.97;;;14.29;60.04
28428;BME280;15662;49.128;8.520;2022-11-20T11:10:56;100001.94;;;14.39;59.96
28428;BME280;15662;49.128;8.520;2022-11-20T11:13:28;99991.84;;;14.45;59.90
28428;BME280;15662;49.128;8.520;2022-11-20T11:15:57;99989.84;;;14.51;59.72
28428;BME280;15662;49.128;8.520;2022-11-20T11:18:32;99983.53;;;14.53;59.39
28428;BME280;15662;49.128;8.520;2022-11-20T11:21:04;99993.06;;;14.57;59.34
28428;BME280;15662;49.128;8.520;2022-11-20T11:23:38;99985.88;;;14.59;59.53
28428;BME280;15662;49.128;8.520;2022-11-20T11:26:21;99990.13;;;14.63;58.99
28428;BME280;15662;49.128;8.520;2022-11-20T11:29:02;99976.72;;;14.65;59.07
28428;BME280;15662;49.128;8.520;2022-11-20T11:31:34;99972.16;;;14.67;59.16
28428;BME280;15662;49.128;8.520;2022-11-20T11:34:14;99973.91;;;14.68;58.71
28428;BME280;15662;49.128;8.520;2022-11-20T11:36:56;99972.75;;;14.74;58.84
28428;BME280;15662;49.128;8.520;2022-11-20T11:39:27;99965.59;;;14.74;58.66
28428;BME280;15662;49.128;8.520;2022-11-20T11:41:57;99978.84;;;14.58;58.98
28428;BME280;15662;49.128;8.520;2022-11-20T11:44:33;99962.44;;;14.66;58.45
28428;BME280;15662;49.128;8.520;2022-11-20T11:52:55;99960.63;;;14.66;58.06
28428;BME280;15662;49.128;8.520;2022-11-20T11:58:51;99947.06;;;14.71;58.43
28428;BME280;15662;49.128;8.520;2022-11-20T12:01:37;99956.44;;;14.80;58.30
28428;BME280;15662;49.128;8.520;2022-11-20T12:07:47;99942.47;;;14.92;57.93
28428;BME280;15662;49.128;8.520;2022-11-20T12:10:24;99948.66;;;14.92;57.93
28428;BME280;15662;49.128;8.520;2022-11-20T12:16:03;99937.75;;;14.97;57.36
28428;BME280;15662;49.128;8.520;2022-11-20T12:18:32;99936.66;;;15.01;56.78
28428;BME280;15662;49.128;8.520;2022-11-20T12:21:26;99938.09;;;15.08;56.52
28428;BME280;15662;49.128;8.520;2022-11-20T12:24:32;99932.81;;;15.07;56.15
28428;BME280;15662;49.128;8.520;2022-11-20T12:32:47;99928.41;;;15.06;55.29
28428;BME280;15662;49.128;8.520;2022-11-20T12:39:22;99934.63;;;14.89;54.46
28428;BME280;15662;49.128;8.520;2022-11-20T12:45:25;99927.72;;;14.85;54.30
28428;BME280;15662;49.128;8.520;2022-11-20T12:51:17;99924.63;;;14.75;53.81
28428;BME280;15662;49.128;8.520;2022-11-20T12:54:29;99928.16;;;14.76;53.95
28428;BME280;15662;49.128;8.520;2022-11-20T13:00:15;99922.13;;;14.72;53.82
28428;BME280;15662;49.128;8.520;2022-11-20T13:03:23;99930.13;;;14.72;53.20
28428;BME280;15662;49.128;8.520;2022-11-20T13:08:53;99928.56;;;14.68;53.22
28428;BME280;15662;49.128;8.520;2022-11-20T13:11:48;99927.63;;;14.69;52.91
28428;BME280;15662;49.128;8.520;2022-11-20T13:17:44;99911.91;;;14.63;52.84
28428;BME280;15662;49.128;8.520;2022-11-20T13:20:18;99908.22;;;14.65;53.06
28428;BME280;15662;49.128;8.520;2022-11-20T13:22:53;99899.22;;;14.68;52.76
28428;BME280;15662;49.128;8.520;2022-11-20T13:30:53;99889.56;;;14.65;52.23
28428;BME280;15662;49.128;8.520;2022-11-20T13:33:33;99883.03;;;14.71;51.78
28428;BME280;15662;49.128;8.520;2022-11-20T13:36:22;99885.00;;;14.67;50.92
28428;BME280;15662;49.128;8.520;2022-11-20T13:38:54;99886.34;;;14.59;51.24
28428;BME280;15662;49.128;8.520;2022-11-20T13:46:46;99887.88;;;14.63;50.72
28428;BME280;15662;49.128;8.520;2022-11-20T13:49:38;99893.41;;;14.60;50.46
28428;BME280;15662;49.128;8.520;2022-11-20T14:00:21;99878.19;;;14.43;49.94
28428;BME280;15662;49.128;8.520;2022-11-20T14:03:09;99878.44;;;14.38;49.86
28428;BME280;15662;49.128;8.520;2022-11-20T14:11:24;99865.88;;;14.40;50.04
28428;BME280;15662;49.128;8.520;2022-11-20T14:14:02;99863.22;;;14.40;49.89
28428;BME280;15662;49.128;8.520;2022-11-20T14:16:37;99866.97;;;14.36;49.90
28428;BME280;15662;49.128;8.520;2022-11-20T14:19:27;99858.03;;;14.37;49.62
28428;BME280;15662;49.128;8.520;2022-11-20T14:22:23;99853.78;;;14.33;49.85
28428;BME280;15662;49.128;8.520;2022-11-20T14:27:47;99862.16;;;14.26;49.99
28428;BME280;15662;49.128;8.520;2022-11-20T14:33:03;99852.59;;;14.22;49.88
28428;BME280;15662;49.128;8.520;2022-11-20T14:35:39;99850.06;;;14.18;49.60
28428;BME280;15662;49.128;8.520;2022-11-20T14:38:13;99845.69;;;14.17;49.64
28428;BME280;15662;49.128;8.520;2022-11-20T14:40:42;99836.81;;;14.17;49.72
28428;BME280;15662;49.128;8.520;2022-11-20T14:43:27;99835.88;;;14.18;49.48
28428;BME280;15662;49.128;8.520;2022-11-20T14:46:03;99849.38;;;14.15;49.39
28428;BME280;15662;49.128;8.520;2022-11-20T14:48:56;99852.03;;;14.15;49.24
28428;BME280;15662;49.128;8.520;2022-11-20T14:51:31;99837.03;;;14.12;49.69
28428;BME280;15662;49.128;8.520;2022-11-20T14:54:19;99836.03;;;14.15;49.40
28428;BME280;15662;49.128;8.520;2022-11-20T14:57:03;99841.38;;;14.15;49.60
28428;BME280;15662;49.128;8.520;2022-11-20T14:59:34;99832.56;;;14.13;49.78
28428;BME280;15662;49.128;8.520;2022-11-20T15:02:08;99825.22;;;14.18;49.62
28428;BME280;15662;49.128;8.520;2022-11-20T15:04:50;99826.97;;;14.19;49.35
28428;BME280;15662;49.128;8.520;2022-11-20T15:07:29;99830.50;;;14.19;49.36
28428;BME280;15662;49.128;8.520;2022-11-20T15:10:02;99832.44;;;14.16;49.43
28428;BME280;15662;49.128;8.520;2022-11-20T15:12:32;99808.66;;;14.11;49.35
28428;BME280;15662;49.128;8.520;2022-11-20T15:15:04;99820.09;;;14.13;49.44
28428;BME280;15662;49.128;8.520;2022-11-20T15:17:37;99814.09;;;14.10;49.44
28428;BME280;15662;49.128;8.520;2022-11-20T15:20:15;99801.75;;;14.07;49.27